createdAt,value
2022-12-23T00:00:39.777Z,7.50
2022-12-23T00:03:07.044Z,7.50
2022-12-23T00:05:40.326Z,7.50
2022-12-23T00:08:08.339Z,7.50
2022-12-23T00:10:38.488Z,7.52
2022-12-23T00:13:23.924Z,7.60
2022-12-23T00:15:50.761Z,7.60
2022-12-23T00:18:17.541Z,7.60
2022-12-23T00:20:44.278Z,7.60
2022-12-23T00:23:10.983Z,7.60
2022-12-23T00:25:42.405Z,7.56
2022-12-23T00:28:29.078Z,7.52
2022-12-23T00:30:55.830Z,7.60
2022-12-23T00:33:25.225Z,7.60
2022-12-23T00:35:52.450Z,7.60
2022-12-23T00:38:39.965Z,7.60
2022-12-23T00:41:33.069Z,7.58
2022-12-23T00:44:00.611Z,7.60
2022-12-23T00:46:28.007Z,7.60
2022-12-23T00:49:13.501Z,7.58
2022-12-23T00:51:40.284Z,7.50
2022-12-23T00:54:07.730Z,7.50
2022-12-23T00:56:34.723Z,7.40
2022-12-23T00:59:01.534Z,7.40
2022-12-23T01:01:47.072Z,7.40
2022-12-23T01:04:33.920Z,7.50
2022-12-23T01:07:01.377Z,7.60
2022-12-23T01:09:28.374Z,7.68
2022-12-23T01:11:55.168Z,7.74
2022-12-23T01:14:22.320Z,7.82
2022-12-23T01:16:49.344Z,7.90
2022-12-23T01:19:16.644Z,8.00
2022-12-23T01:21:43.378Z,8.10
2022-12-23T01:24:10.105Z,8.10
2022-12-23T01:26:36.839Z,8.20
2022-12-23T01:29:04.108Z,8.24
2022-12-23T01:31:30.869Z,8.30
2022-12-23T01:33:57.698Z,8.38
2022-12-23T01:36:24.903Z,8.40
2022-12-23T01:38:52.461Z,8.50
2022-12-23T01:41:40.517Z,8.56
2022-12-23T01:44:51.042Z,8.60
2022-12-23T01:47:36.064Z,8.70
2022-12-23T01:50:11.932Z,8.70
2022-12-23T01:52:47.132Z,8.70
2022-12-23T01:55:16.546Z,8.70
2022-12-23T01:57:44.621Z,8.70
2022-12-23T02:00:31.533Z,8.60
2022-12-23T02:03:17.307Z,8.50
2022-12-23T02:05:46.312Z,8.50
2022-12-23T02:08:34.751Z,8.50
2022-12-23T02:11:39.127Z,8.50
2022-12-23T02:14:55.944Z,8.40
2022-12-23T02:17:37.369Z,8.30
2022-12-23T02:20:15.288Z,8.26
2022-12-23T02:22:44.981Z,8.20
2022-12-23T02:25:14.391Z,8.14
2022-12-23T02:28:09.024Z,8.08
2022-12-23T02:30:57.072Z,8.20
2022-12-23T02:33:53.317Z,8.20
2022-12-23T02:36:34.706Z,8.20
2022-12-23T02:39:11.987Z,8.20
2022-12-23T02:41:51.007Z,8.20
2022-12-23T02:44:32.744Z,8.20
2022-12-23T02:47:05.938Z,8.20
2022-12-23T02:49:36.656Z,8.20
2022-12-23T02:52:12.832Z,8.20
2022-12-23T02:54:45.171Z,8.28
2022-12-23T02:57:14.714Z,8.30
2022-12-23T02:59:47.380Z,8.30
2022-12-23T03:02:14.262Z,8.30
2022-12-23T03:04:42.436Z,8.30
2022-12-23T03:07:31.578Z,8.30
2022-12-23T03:10:08.557Z,8.30
2022-12-23T03:13:02.733Z,8.30
2022-12-23T03:15:57.604Z,8.30
2022-12-23T03:18:51.195Z,8.36
2022-12-23T03:21:30.375Z,8.40
2022-12-23T03:24:03.223Z,8.40
2022-12-23T03:26:34.149Z,8.40
2022-12-23T03:29:08.807Z,8.40
2022-12-23T03:31:37.923Z,8.40
2022-12-23T03:34:10.557Z,8.40
2022-12-23T03:36:46.751Z,8.34
2022-12-23T03:39:19.582Z,8.30
2022-12-23T03:42:15.772Z,8.30
2022-12-23T03:45:10.748Z,8.30
2022-12-23T03:47:45.598Z,8.30
2022-12-23T03:50:16.005Z,8.32
2022-12-23T03:53:02.579Z,8.34
2022-12-23T03:55:44.481Z,8.40
2022-12-23T03:58:33.952Z,8.40
2022-12-23T04:01:21.001Z,8.40
2022-12-23T04:04:07.106Z,8.50
2022-12-23T04:06:41.097Z,8.50
2022-12-23T04:09:08.870Z,8.50
2022-12-23T04:11:36.725Z,8.50
2022-12-23T04:14:03.490Z,8.50
2022-12-23T04:16:30.613Z,8.50
2022-12-23T04:18:57.404Z,8.50
2022-12-23T04:21:24.174Z,8.46
2022-12-23T04:23:50.875Z,8.50
2022-12-23T04:26:17.652Z,8.50
2022-12-23T04:28:44.307Z,8.40
2022-12-23T04:31:11.067Z,8.40
2022-12-23T04:33:37.827Z,8.40
2022-12-23T04:36:04.967Z,8.30
2022-12-23T04:38:31.672Z,8.30
2022-12-23T04:40:58.326Z,8.30
2022-12-23T04:43:25.036Z,8.30
2022-12-23T04:45:52.038Z,8.30
2022-12-23T04:48:19.334Z,8.30
2022-12-23T04:50:46.053Z,8.30
2022-12-23T04:53:12.763Z,8.28
2022-12-23T04:55:39.554Z,8.28
2022-12-23T04:58:06.236Z,8.22
2022-12-23T05:00:39.192Z,8.20
2022-12-23T05:03:06.768Z,8.20
2022-12-23T05:05:33.663Z,8.24
2022-12-23T05:08:05.444Z,8.20
2022-12-23T05:10:32.577Z,8.20
2022-12-23T05:12:59.298Z,8.20
2022-12-23T05:15:26.019Z,8.20
2022-12-23T05:17:52.671Z,8.24
2022-12-23T05:20:19.451Z,8.20
2022-12-23T05:22:46.159Z,8.20
2022-12-23T05:25:12.933Z,8.20
2022-12-23T05:27:39.620Z,8.20
2022-12-23T05:30:07.657Z,8.20
2022-12-23T05:32:34.374Z,8.20
2022-12-23T05:35:01.114Z,8.20
2022-12-23T05:37:27.778Z,8.20
2022-12-23T05:39:54.443Z,8.20
2022-12-23T05:42:21.230Z,8.20
2022-12-23T05:44:47.974Z,8.20
2022-12-23T05:47:14.845Z,8.30
2022-12-23T05:49:41.482Z,8.28
2022-12-23T05:52:08.171Z,8.30
2022-12-23T05:54:34.876Z,8.28
2022-12-23T05:57:01.622Z,8.22
2022-12-23T05:59:31.237Z,8.28
2022-12-23T06:01:58.365Z,8.30
2022-12-23T06:04:25.324Z,8.30
2022-12-23T06:06:52.155Z,8.30
2022-12-23T06:09:18.851Z,8.30
2022-12-23T06:11:45.590Z,8.30
2022-12-23T06:14:12.629Z,8.30
2022-12-23T06:16:39.420Z,8.30
2022-12-23T06:19:06.206Z,8.30
2022-12-23T06:21:33.370Z,8.30
2022-12-23T06:24:00.371Z,8.38
2022-12-23T06:26:27.364Z,8.40
2022-12-23T06:28:54.119Z,8.40
2022-12-23T06:31:21.193Z,8.40
2022-12-23T06:33:47.961Z,8.40
2022-12-23T06:36:14.736Z,8.40
2022-12-23T06:38:41.454Z,8.40
2022-12-23T06:41:08.203Z,8.42
2022-12-23T06:43:35.157Z,8.46
2022-12-23T06:46:02.106Z,8.50
2022-12-23T06:48:28.932Z,8.50
2022-12-23T06:50:55.713Z,8.50
2022-12-23T06:53:22.426Z,8.50
2022-12-23T06:55:49.141Z,8.50
2022-12-23T06:58:15.908Z,8.52
2022-12-23T07:00:42.607Z,8.54
2022-12-23T07:03:09.479Z,8.60
2022-12-23T07:05:37.729Z,8.60
2022-12-23T07:08:05.319Z,8.60
2022-12-23T07:10:32.162Z,8.64
2022-12-23T07:12:58.820Z,8.70
2022-12-23T07:15:25.515Z,8.70
2022-12-23T07:17:54.220Z,8.70
2022-12-23T07:20:20.954Z,8.80
2022-12-23T07:22:47.705Z,8.80
2022-12-23T07:25:14.406Z,8.80
2022-12-23T07:27:41.241Z,8.90
2022-12-23T07:30:08.840Z,8.90
2022-12-23T07:32:35.710Z,8.90
2022-12-23T07:35:02.530Z,8.90
2022-12-23T07:37:29.176Z,8.90
2022-12-23T07:39:56.165Z,8.90
2022-12-23T07:45:10.207Z,9.00
2022-12-23T07:47:36.910Z,9.00
2022-12-23T07:50:03.979Z,9.00
2022-12-23T07:52:30.667Z,9.00
2022-12-23T07:54:57.314Z,9.00
2022-12-23T07:57:24.492Z,9.06
2022-12-23T07:59:51.199Z,9.10
2022-12-23T08:02:18.156Z,9.10
2022-12-23T08:04:46.501Z,9.10
2022-12-23T08:07:13.601Z,9.10
2022-12-23T08:09:40.299Z,9.10
2022-12-23T08:12:07.385Z,9.10
2022-12-23T08:14:34.078Z,9.10
2022-12-23T08:17:01.003Z,9.12
2022-12-23T08:19:27.763Z,9.20
2022-12-23T08:21:54.454Z,9.20
2022-12-23T08:24:21.389Z,9.30
2022-12-23T08:26:48.069Z,9.30
2022-12-23T08:29:14.764Z,9.36
2022-12-23T08:31:41.532Z,9.50
2022-12-23T08:34:08.357Z,9.60
2022-12-23T08:36:36.197Z,9.70
2022-12-23T08:39:07.182Z,9.70
2022-12-23T08:41:38.479Z,9.80
2022-12-23T08:44:05.457Z,9.98
2022-12-23T08:46:32.355Z,10.00
2022-12-23T08:48:59.384Z,10.10
2022-12-23T08:51:28.526Z,10.18
2022-12-23T08:54:00.520Z,10.20
2022-12-23T08:56:31.626Z,10.30
2022-12-23T08:58:58.363Z,10.30
2022-12-23T09:01:28.338Z,10.40
2022-12-23T09:03:55.774Z,10.40
2022-12-23T09:06:29.536Z,10.40
2022-12-23T09:08:58.233Z,10.40
2022-12-23T09:11:27.480Z,10.50
2022-12-23T09:13:54.626Z,10.60
2022-12-23T09:16:21.928Z,10.66
2022-12-23T09:18:48.749Z,10.70
2022-12-23T09:21:18.811Z,10.70
2022-12-23T09:23:45.528Z,10.80
2022-12-23T09:26:18.216Z,10.84
2022-12-23T09:28:44.870Z,10.80
2022-12-23T09:31:13.155Z,10.80
2022-12-23T09:33:39.920Z,10.80
2022-12-23T09:36:07.739Z,10.90
2022-12-23T09:38:34.825Z,10.90
2022-12-23T09:41:20.364Z,11.00
2022-12-23T09:44:15.054Z,11.00
2022-12-23T09:46:53.705Z,11.04
2022-12-23T09:49:22.702Z,11.10
2022-12-23T09:51:54.218Z,11.20
2022-12-23T09:54:29.611Z,11.28
2022-12-23T09:57:02.892Z,11.40
2022-12-23T09:59:57.467Z,11.50
2022-12-23T10:02:50.776Z,11.70
2022-12-23T10:05:57.844Z,11.80
2022-12-23T10:08:33.128Z,11.98
2022-12-23T10:11:05.001Z,12.02
2022-12-23T10:13:41.248Z,12.10
2022-12-23T10:16:16.949Z,12.20
2022-12-23T10:18:53.929Z,12.38
2022-12-23T10:21:26.673Z,12.50
2022-12-23T10:23:54.599Z,12.60
2022-12-23T10:26:52.006Z,12.70
2022-12-23T10:29:23.976Z,12.74
2022-12-23T10:32:41.668Z,12.80
2022-12-23T10:35:44.305Z,12.90
2022-12-23T10:38:35.791Z,13.00
2022-12-23T10:41:09.653Z,13.10
2022-12-23T10:44:04.523Z,13.10
2022-12-23T10:47:00.333Z,13.20
2022-12-23T10:49:36.144Z,13.20
2022-12-23T10:52:13.159Z,13.30
2022-12-23T10:54:42.453Z,13.20
2022-12-23T10:57:09.722Z,13.20
2022-12-23T10:59:37.128Z,13.24
2022-12-23T11:02:13.151Z,13.32
2022-12-23T11:04:46.167Z,13.50
2022-12-23T11:07:43.857Z,13.60
2022-12-23T11:10:18.406Z,13.70
2022-12-23T11:12:49.818Z,13.80
2022-12-23T11:15:40.030Z,13.80
2022-12-23T11:18:12.709Z,13.90
2022-12-23T11:20:42.027Z,13.96
2022-12-23T11:23:30.776Z,14.00
2022-12-23T11:26:03.993Z,14.00
2022-12-23T11:28:32.864Z,14.00
2022-12-23T11:31:08.634Z,14.00
2022-12-23T11:33:39.897Z,14.00
2022-12-23T11:36:08.611Z,14.00
2022-12-23T11:38:37.619Z,14.00
2022-12-23T11:41:05.512Z,14.02
2022-12-23T11:43:33.116Z,14.10
2022-12-23T11:46:28.372Z,14.10
2022-12-23T11:49:12.566Z,14.10
2022-12-23T11:51:39.290Z,14.10
2022-12-23T11:54:05.988Z,14.06
2022-12-23T11:56:40.422Z,14.08
2022-12-23T11:59:24.798Z,14.10
2022-12-23T12:01:52.143Z,14.20
2022-12-23T12:04:23.880Z,14.14
2022-12-23T12:06:56.348Z,14.10
2022-12-23T12:09:24.939Z,14.00
2022-12-23T12:12:19.486Z,13.90
2022-12-23T12:14:56.955Z,13.90
2022-12-23T12:17:32.864Z,13.80
2022-12-23T12:20:10.037Z,13.80
2022-12-23T12:22:42.558Z,13.70
2022-12-23T12:25:22.696Z,13.70
2022-12-23T12:27:58.056Z,13.70
2022-12-23T12:30:33.216Z,13.70
2022-12-23T12:33:05.742Z,13.72
2022-12-23T12:35:45.726Z,13.72
2022-12-23T12:38:25.552Z,13.74
2022-12-23T12:41:02.750Z,13.90
2022-12-23T12:43:34.449Z,14.00
2022-12-23T12:46:32.573Z,14.00
2022-12-23T12:49:17.663Z,14.10
2022-12-23T12:51:54.243Z,14.08
2022-12-23T12:54:35.289Z,14.10
2022-12-23T12:57:03.244Z,14.10
2022-12-23T12:59:34.691Z,14.20
2022-12-23T13:02:57.712Z,14.30
2022-12-23T13:05:58.617Z,14.40
2022-12-23T13:08:38.025Z,14.50
2022-12-23T13:11:14.934Z,14.50
2022-12-23T13:14:06.283Z,14.50
2022-12-23T13:17:07.239Z,14.50
2022-12-23T13:19:52.836Z,14.40
2022-12-23T13:22:28.665Z,14.30
2022-12-23T13:25:04.579Z,14.30
2022-12-23T13:27:35.803Z,14.30
2022-12-23T13:30:14.019Z,14.20
2022-12-23T13:32:53.385Z,14.20
2022-12-23T13:35:35.337Z,14.10
2022-12-23T13:38:23.689Z,14.04
2022-12-23T13:41:09.166Z,14.00
2022-12-23T13:43:56.534Z,13.90
2022-12-23T13:46:32.982Z,13.90
2022-12-23T13:49:13.090Z,13.80
2022-12-23T13:51:52.228Z,13.80
2022-12-23T13:54:43.733Z,13.80
2022-12-23T13:57:44.738Z,13.72
2022-12-23T14:00:17.302Z,13.74
2022-12-23T14:02:51.508Z,13.74
2022-12-23T14:05:31.945Z,13.70
2022-12-23T14:08:05.975Z,13.70
2022-12-23T14:10:34.523Z,13.70
2022-12-23T14:13:08.555Z,13.60
2022-12-23T14:16:02.604Z,13.60
2022-12-23T14:18:54.366Z,13.60
2022-12-23T14:22:02.488Z,13.52
2022-12-23T14:24:47.809Z,13.48
2022-12-23T14:27:53.810Z,13.40
2022-12-23T14:30:42.975Z,13.30
2022-12-23T14:33:19.121Z,13.30
2022-12-23T14:35:45.780Z,13.12
2022-12-23T14:38:15.282Z,13.00
2022-12-23T14:40:41.937Z,12.90
2022-12-23T14:43:42.886Z,12.86
2022-12-23T14:46:35.694Z,12.72
2022-12-23T14:49:37.674Z,12.70
2022-12-23T14:51:52.766Z,12.64
2022-12-23T14:54:38.560Z,12.60
2022-12-23T14:57:14.038Z,12.50
2022-12-23T14:59:48.193Z,12.50
2022-12-23T15:02:18.066Z,12.40
2022-12-23T15:04:48.221Z,12.40
2022-12-23T15:07:35.340Z,12.34
2022-12-23T15:10:13.651Z,12.30
2022-12-23T15:12:43.274Z,12.24
2022-12-23T15:15:17.666Z,12.20
2022-12-23T15:17:44.820Z,12.18
2022-12-23T15:20:14.020Z,12.10
2022-12-23T15:22:43.018Z,12.08
2022-12-23T15:25:35.615Z,12.00
2022-12-23T15:28:03.741Z,12.00
2022-12-23T15:30:36.952Z,11.96
2022-12-23T15:33:16.398Z,11.90
2022-12-23T15:35:53.554Z,11.90
2022-12-23T15:38:22.469Z,11.80
2022-12-23T15:41:01.578Z,11.80
2022-12-23T15:43:28.920Z,11.70
2022-12-23T15:46:07.218Z,11.70
2022-12-23T15:48:34.995Z,11.70
2022-12-23T15:51:06.567Z,11.70
2022-12-23T15:53:38.612Z,11.70
2022-12-23T15:56:11.101Z,11.70
2022-12-23T15:58:41.681Z,11.70
2022-12-23T16:01:14.946Z,11.70
2022-12-23T16:03:46.297Z,11.70
2022-12-23T16:06:47.907Z,11.70
2022-12-23T16:09:18.046Z,11.70
2022-12-23T16:12:05.456Z,11.70
2022-12-23T16:14:39.468Z,11.68
2022-12-23T16:17:09.238Z,11.60
2022-12-23T16:19:47.041Z,11.60
2022-12-23T16:22:37.924Z,11.60
2022-12-23T16:25:27.836Z,11.60
2022-12-23T16:27:58.285Z,11.60
2022-12-23T16:30:55.445Z,11.60
2022-12-23T16:33:49.462Z,11.58
2022-12-23T16:36:19.072Z,11.50
2022-12-23T16:38:47.101Z,11.50
2022-12-23T16:41:14.155Z,11.50
2022-12-23T16:43:46.015Z,11.50
2022-12-23T16:46:19.942Z,11.44
2022-12-23T16:48:56.063Z,11.46
2022-12-23T16:51:23.626Z,11.40
2022-12-23T16:53:53.672Z,11.40
2022-12-23T16:56:21.778Z,11.40
2022-12-23T16:58:48.781Z,11.40
2022-12-23T17:01:22.654Z,11.40
2022-12-23T17:03:50.169Z,11.40
2022-12-23T17:06:17.928Z,11.40
2022-12-23T17:08:45.066Z,11.40
2022-12-23T17:11:19.547Z,11.40
2022-12-23T17:13:47.735Z,11.40
2022-12-23T17:16:20.855Z,11.40
2022-12-23T17:18:48.644Z,11.40
2022-12-23T17:21:25.464Z,11.40
2022-12-23T17:23:56.816Z,11.30
2022-12-23T17:26:24.389Z,11.30
2022-12-23T17:28:52.439Z,11.20
2022-12-23T17:31:26.574Z,11.20
2022-12-23T17:33:54.781Z,11.20
2022-12-23T17:36:22.921Z,11.10
2022-12-23T17:38:50.298Z,11.10
2022-12-23T17:41:28.892Z,11.10
2022-12-23T17:43:56.004Z,11.04
2022-12-23T17:46:23.126Z,11.00
2022-12-23T17:48:50.278Z,11.02
2022-12-23T17:51:21.102Z,11.00
2022-12-23T17:53:55.084Z,11.00
2022-12-23T17:56:25.201Z,11.00
2022-12-23T17:58:52.361Z,11.00
2022-12-23T18:01:23.825Z,11.00
2022-12-23T18:03:50.766Z,11.00
2022-12-23T18:06:20.248Z,11.00
2022-12-23T18:08:47.295Z,11.02
2022-12-23T18:11:21.313Z,11.10
2022-12-23T18:13:50.325Z,11.10
2022-12-23T18:16:17.090Z,11.10
2022-12-23T18:18:46.704Z,11.20
2022-12-23T18:21:27.887Z,11.20
2022-12-23T18:23:58.892Z,11.20
2022-12-23T18:26:26.323Z,11.30
2022-12-23T18:28:54.603Z,11.30
2022-12-23T18:31:27.352Z,11.30
2022-12-23T18:33:54.538Z,11.30
2022-12-23T18:36:27.551Z,11.38
2022-12-23T18:38:55.001Z,11.40
2022-12-23T18:41:22.866Z,11.40
2022-12-23T18:43:50.601Z,11.40
2022-12-23T18:46:20.202Z,11.40
2022-12-23T18:48:47.189Z,11.40
2022-12-23T18:51:19.292Z,11.40
2022-12-23T18:53:47.329Z,11.40
2022-12-23T18:56:16.431Z,11.40
2022-12-23T18:58:43.265Z,11.40
2022-12-23T19:01:14.995Z,11.40
2022-12-23T19:03:42.762Z,11.40
2022-12-23T19:06:13.371Z,11.40
2022-12-23T19:08:41.686Z,11.40
2022-12-23T19:11:14.765Z,11.40
2022-12-23T19:13:41.588Z,11.40
2022-12-23T19:16:13.554Z,11.40
2022-12-23T19:18:40.465Z,11.40
2022-12-23T19:21:07.242Z,11.40
2022-12-23T19:23:34.314Z,11.34
2022-12-23T19:26:01.216Z,11.30
2022-12-23T19:28:27.989Z,11.30
2022-12-23T19:30:54.702Z,11.30
2022-12-23T19:33:21.582Z,11.32
2022-12-23T19:35:48.375Z,11.40
2022-12-23T19:38:15.400Z,11.40
2022-12-23T19:40:42.169Z,11.40
2022-12-23T19:43:09.158Z,11.50
2022-12-23T19:45:36.073Z,11.50
2022-12-23T19:48:03.153Z,11.50
2022-12-23T19:50:29.863Z,11.58
2022-12-23T19:52:57.103Z,11.60
2022-12-23T19:55:24.264Z,11.60
2022-12-23T19:57:52.409Z,11.60
2022-12-23T20:00:19.599Z,11.70
2022-12-23T20:02:46.526Z,11.70
2022-12-23T20:05:13.387Z,11.70
2022-12-23T20:07:40.213Z,11.70
2022-12-23T20:10:07.972Z,11.72
2022-12-23T20:12:34.720Z,11.80
2022-12-23T20:15:01.655Z,11.80
2022-12-23T20:17:28.393Z,11.84
2022-12-23T20:19:55.047Z,11.90
2022-12-23T20:22:21.902Z,11.90
2022-12-23T20:24:49.235Z,11.90
2022-12-23T20:27:17.009Z,12.00
2022-12-23T20:29:45.025Z,12.00
2022-12-23T20:32:11.691Z,12.10
2022-12-23T20:34:40.073Z,12.18
2022-12-23T20:37:07.869Z,12.20
2022-12-23T20:39:35.054Z,12.30
2022-12-23T20:42:02.082Z,12.40
2022-12-23T20:44:37.219Z,12.50
2022-12-23T20:47:06.220Z,12.64
2022-12-23T20:49:33.826Z,12.80
2022-12-23T20:52:00.684Z,12.90
2022-12-23T20:54:32.867Z,13.00
2022-12-23T20:57:00.662Z,13.10
2022-12-23T20:59:27.554Z,13.20
2022-12-23T21:01:54.930Z,13.22
2022-12-23T21:04:22.850Z,13.30
2022-12-23T21:06:49.913Z,13.30
2022-12-23T21:09:17.494Z,13.30
2022-12-23T21:11:46.386Z,13.30
2022-12-23T21:14:14.792Z,13.30
2022-12-23T21:17:01.780Z,13.40
2022-12-23T21:19:28.572Z,13.46
2022-12-23T21:21:55.395Z,13.50
2022-12-23T21:24:22.198Z,13.60
2022-12-23T21:26:56.426Z,13.60
2022-12-23T21:29:24.436Z,13.70
2022-12-23T21:31:52.027Z,13.70
2022-12-23T21:34:19.651Z,13.80
2022-12-23T21:36:46.585Z,13.80
2022-12-23T21:39:16.812Z,13.90
2022-12-23T21:41:43.896Z,13.90
2022-12-23T21:44:13.678Z,14.00
2022-12-23T21:46:40.678Z,14.00
2022-12-23T21:49:07.497Z,14.10
2022-12-23T21:51:40.302Z,14.10
2022-12-23T21:54:09.729Z,14.10
2022-12-23T21:56:37.256Z,14.20
2022-12-23T21:59:06.959Z,14.22
2022-12-23T22:01:34.430Z,14.30
2022-12-23T22:04:01.248Z,14.30
2022-12-23T22:06:31.919Z,14.40
2022-12-23T22:08:59.595Z,14.40
2022-12-23T22:11:29.468Z,14.40
2022-12-23T22:13:57.755Z,14.40
2022-12-23T22:16:26.528Z,14.40
2022-12-23T22:18:54.395Z,14.32
2022-12-23T22:21:23.403Z,14.30
2022-12-23T22:23:51.357Z,14.30
2022-12-23T22:26:25.502Z,14.02
2022-12-23T22:28:57.539Z,13.38
2022-12-23T22:31:42.100Z,12.90
2022-12-23T22:34:14.262Z,12.60
2022-12-23T22:36:41.054Z,12.36
2022-12-23T22:39:08.290Z,12.18
2022-12-23T22:41:35.611Z,12.00
2022-12-23T22:44:02.529Z,11.90
2022-12-23T22:46:29.969Z,11.80
2022-12-23T22:48:58.790Z,11.74
2022-12-23T22:51:28.931Z,11.70
2022-12-23T22:53:56.755Z,11.60
2022-12-23T22:56:25.146Z,11.60
2022-12-23T22:58:52.937Z,11.50
2022-12-23T23:01:24.284Z,11.50
2022-12-23T23:03:57.080Z,11.50
2022-12-23T23:06:26.875Z,11.46
2022-12-23T23:08:54.827Z,11.46
2022-12-23T23:11:22.493Z,11.42
2022-12-23T23:13:49.188Z,11.40
2022-12-23T23:16:16.103Z,11.40
2022-12-23T23:18:42.909Z,11.40
2022-12-23T23:21:12.444Z,11.40
2022-12-23T23:23:39.077Z,11.40
2022-12-23T23:26:06.438Z,11.40
2022-12-23T23:28:33.145Z,11.40
2022-12-23T23:31:32.018Z,11.44
2022-12-23T23:33:46.744Z,11.50
2022-12-23T23:36:13.551Z,11.50
2022-12-23T23:38:40.259Z,11.50
2022-12-23T23:41:06.965Z,11.50
2022-12-23T23:43:33.757Z,11.60
2022-12-23T23:46:00.505Z,11.60
2022-12-23T23:48:27.205Z,11.68
2022-12-23T23:51:02.737Z,11.70
2022-12-23T23:53:29.394Z,11.70
2022-12-23T23:56:02.256Z,11.70
2022-12-23T23:58:29.152Z,11.76
